Portada
METAR-TAF:

METAR-TAF

Aeroports :

Sam Mbakwe Airport

Owerri, Nigèria

latitud: 5-25-35N, longitud: 7-12-20E, altitud: 114 m

Observació

L'informe es va fer fa 4 hores i 44 minuts, a les 23:00 UTC
Vent calma
Temperatura 27°C
Humitat 89%
Pressió 1012 hPa
Visibilitat 10 km o més
Cel ennuvolat a una alçada de 1100 ft
Escasses núvols a una alçada de 1900 ft, Cumulonimbus.
tempesta

METAR: DNIM 272300Z 00000KT 9999 TS BKN011 FEW019CB 27/25 Q1012

Hora: 04:44 (03:44 UTC)


TAF: manca

Observacions i pronòstics meteorològics de més de 4000 aeroports (METAR i TAF).

Les estacions disponibles són els punts grocs i vermells al mapa.

Posi el ratolí al punt desitjat per veure el nom de l'estació.

Feu clic per veure les observacions i els pronòstics meteorològics.

Per canviar el mapa: feu clic els botons verds amb una creu de color negre per apropar; al botó verd amb un guió per allunyar la imatge; o en les fletxes verdes per a mapes adjacents.


METAR-TAF: